sensor_id;sensor_type;location;lat;lon;timestamp;P1;durP1;ratioP1;P2;durP2;ratioP2
63693;SDS011;49839;51.798;10.954;2023-08-20T00:03:02;9.50;;;5.70;;
63693;SDS011;49839;51.798;10.954;2023-08-20T00:05:30;8.07;;;5.88;;
63693;SDS011;49839;51.798;10.954;2023-08-20T00:07:58;12.18;;;5.97;;
63693;SDS011;49839;51.798;10.954;2023-08-20T00:10:25;12.50;;;5.70;;
63693;SDS011;49839;51.798;10.954;2023-08-20T00:12:53;13.48;;;6.72;;
63693;SDS011;49839;51.798;10.954;2023-08-20T00:15:21;8.75;;;6.47;;
63693;SDS011;49839;51.798;10.954;2023-08-20T00:17:53;12.63;;;6.97;;
63693;SDS011;49839;51.798;10.954;2023-08-20T00:20:21;9.57;;;6.40;;
63693;SDS011;49839;51.798;10.954;2023-08-20T00:22:49;11.13;;;6.43;;
63693;SDS011;49839;51.798;10.954;2023-08-20T00:25:17;9.48;;;6.53;;
63693;SDS011;49839;51.798;10.954;2023-08-20T00:27:44;8.57;;;6.22;;
63693;SDS011;49839;51.798;10.954;2023-08-20T00:30:12;10.70;;;7.07;;
63693;SDS011;49839;51.798;10.954;2023-08-20T00:32:41;9.60;;;6.72;;
63693;SDS011;49839;51.798;10.954;2023-08-20T00:35:09;10.13;;;6.80;;
63693;SDS011;49839;51.798;10.954;2023-08-20T00:37:36;11.75;;;7.45;;
63693;SDS011;49839;51.798;10.954;2023-08-20T00:40:04;12.15;;;8.15;;
63693;SDS011;49839;51.798;10.954;2023-08-20T00:42:32;12.63;;;8.03;;
63693;SDS011;49839;51.798;10.954;2023-08-20T00:45:00;14.32;;;8.27;;
63693;SDS011;49839;51.798;10.954;2023-08-20T00:47:27;14.98;;;8.77;;
63693;SDS011;49839;51.798;10.954;2023-08-20T00:49:56;15.70;;;9.90;;
63693;SDS011;49839;51.798;10.954;2023-08-20T00:52:23;13.07;;;9.50;;
63693;SDS011;49839;51.798;10.954;2023-08-20T00:54:51;15.25;;;9.85;;
63693;SDS011;49839;51.798;10.954;2023-08-20T00:57:19;14.45;;;9.82;;
63693;SDS011;49839;51.798;10.954;2023-08-20T00:59:47;19.55;;;10.18;;
63693;SDS011;49839;51.798;10.954;2023-08-20T01:02:15;15.57;;;10.98;;
63693;SDS011;49839;51.798;10.954;2023-08-20T01:04:43;12.93;;;10.05;;
63693;SDS011;49839;51.798;10.954;2023-08-20T01:07:14;13.75;;;10.65;;
63693;SDS011;49839;51.798;10.954;2023-08-20T01:09:43;13.20;;;11.07;;
63693;SDS011;49839;51.798;10.954;2023-08-20T01:12:13;13.93;;;10.95;;
63693;SDS011;49839;51.798;10.954;2023-08-20T01:14:41;16.75;;;11.68;;
63693;SDS011;49839;51.798;10.954;2023-08-20T01:17:08;16.52;;;10.60;;
63693;SDS011;49839;51.798;10.954;2023-08-20T01:25:03;15.20;;;11.35;;
63693;SDS011;49839;51.798;10.954;2023-08-20T01:27:37;15.88;;;10.95;;
63693;SDS011;49839;51.798;10.954;2023-08-20T01:30:09;17.13;;;10.30;;
63693;SDS011;49839;51.798;10.954;2023-08-20T01:35:04;14.93;;;10.57;;
63693;SDS011;49839;51.798;10.954;2023-08-20T01:37:32;14.50;;;10.40;;
63693;SDS011;49839;51.798;10.954;2023-08-20T01:40:00;15.77;;;10.75;;
63693;SDS011;49839;51.798;10.954;2023-08-20T01:42:27;18.63;;;11.13;;
63693;SDS011;49839;51.798;10.954;2023-08-20T01:44:55;16.25;;;9.77;;
63693;SDS011;49839;51.798;10.954;2023-08-20T01:47:24;13.90;;;9.57;;
63693;SDS011;49839;51.798;10.954;2023-08-20T01:49:51;19.15;;;11.25;;
63693;SDS011;49839;51.798;10.954;2023-08-20T01:52:19;14.25;;;10.55;;
63693;SDS011;49839;51.798;10.954;2023-08-20T01:54:47;14.73;;;9.80;;
63693;SDS011;49839;51.798;10.954;2023-08-20T01:57:15;14.00;;;9.73;;
63693;SDS011;49839;51.798;10.954;2023-08-20T01:59:43;12.63;;;9.30;;
63693;SDS011;49839;51.798;10.954;2023-08-20T02:02:10;17.30;;;10.70;;
63693;SDS011;49839;51.798;10.954;2023-08-20T02:04:39;14.40;;;9.73;;
63693;SDS011;49839;51.798;10.954;2023-08-20T02:07:06;15.23;;;9.70;;
63693;SDS011;49839;51.798;10.954;2023-08-20T02:09:34;13.10;;;9.05;;
63693;SDS011;49839;51.798;10.954;2023-08-20T02:12:02;13.73;;;9.85;;
63693;SDS011;49839;51.798;10.954;2023-08-20T02:14:29;15.15;;;10.32;;
63693;SDS011;49839;51.798;10.954;2023-08-20T02:17:00;15.30;;;9.73;;
63693;SDS011;49839;51.798;10.954;2023-08-20T02:19:28;15.60;;;10.85;;
63693;SDS011;49839;51.798;10.954;2023-08-20T02:21:57;17.45;;;11.07;;
63693;SDS011;49839;51.798;10.954;2023-08-20T02:24:24;15.35;;;10.30;;
63693;SDS011;49839;51.798;10.954;2023-08-20T02:26:52;15.60;;;11.13;;
63693;SDS011;49839;51.798;10.954;2023-08-20T02:29:19;15.68;;;11.50;;
63693;SDS011;49839;51.798;10.954;2023-08-20T02:31:47;14.90;;;10.40;;
63693;SDS011;49839;51.798;10.954;2023-08-20T02:34:14;16.70;;;10.55;;
63693;SDS011;49839;51.798;10.954;2023-08-20T02:36:42;15.77;;;11.18;;
63693;SDS011;49839;51.798;10.954;2023-08-20T02:39:10;14.85;;;12.30;;
63693;SDS011;49839;51.798;10.954;2023-08-20T02:41:38;17.27;;;13.13;;
63693;SDS011;49839;51.798;10.954;2023-08-20T02:44:05;17.55;;;12.95;;
63693;SDS011;49839;51.798;10.954;2023-08-20T02:46:33;16.77;;;11.95;;
63693;SDS011;49839;51.798;10.954;2023-08-20T02:49:00;18.67;;;13.52;;
63693;SDS011;49839;51.798;10.954;2023-08-20T02:51:28;18.85;;;14.13;;
63693;SDS011;49839;51.798;10.954;2023-08-20T02:53:55;22.52;;;13.48;;
63693;SDS011;49839;51.798;10.954;2023-08-20T02:56:24;19.10;;;14.15;;
63693;SDS011;49839;51.798;10.954;2023-08-20T02:58:51;16.88;;;14.60;;
63693;SDS011;49839;51.798;10.954;2023-08-20T03:01:19;19.63;;;14.48;;
63693;SDS011;49839;51.798;10.954;2023-08-20T03:03:47;20.73;;;15.38;;
63693;SDS011;49839;51.798;10.954;2023-08-20T03:06:14;19.10;;;12.63;;
63693;SDS011;49839;51.798;10.954;2023-08-20T03:08:42;19.80;;;14.88;;
63693;SDS011;49839;51.798;10.954;2023-08-20T03:11:09;17.27;;;13.75;;
63693;SDS011;49839;51.798;10.954;2023-08-20T03:13:38;20.05;;;14.02;;
63693;SDS011;49839;51.798;10.954;2023-08-20T03:16:06;18.75;;;15.23;;
63693;SDS011;49839;51.798;10.954;2023-08-20T03:18:33;21.48;;;14.55;;
63693;SDS011;49839;51.798;10.954;2023-08-20T03:21:01;21.08;;;15.52;;
63693;SDS011;49839;51.798;10.954;2023-08-20T03:23:29;20.17;;;15.00;;
63693;SDS011;49839;51.798;10.954;2023-08-20T03:25:57;19.08;;;14.10;;
63693;SDS011;49839;51.798;10.954;2023-08-20T03:28:24;21.63;;;16.05;;
63693;SDS011;49839;51.798;10.954;2023-08-20T03:30:53;19.25;;;15.38;;
63693;SDS011;49839;51.798;10.954;2023-08-20T03:33:21;23.10;;;15.68;;
63693;SDS011;49839;51.798;10.954;2023-08-20T03:35:48;26.52;;;17.48;;
63693;SDS011;49839;51.798;10.954;2023-08-20T03:38:15;21.25;;;16.30;;
63693;SDS011;49839;51.798;10.954;2023-08-20T03:40:43;19.30;;;15.75;;
63693;SDS011;49839;51.798;10.954;2023-08-20T03:43:11;22.45;;;17.33;;
63693;SDS011;49839;51.798;10.954;2023-08-20T03:45:39;23.92;;;16.63;;
63693;SDS011;49839;51.798;10.954;2023-08-20T03:48:08;21.13;;;15.38;;
63693;SDS011;49839;51.798;10.954;2023-08-20T03:50:36;19.50;;;16.13;;
63693;SDS011;49839;51.798;10.954;2023-08-20T03:53:04;22.38;;;16.08;;
63693;SDS011;49839;51.798;10.954;2023-08-20T03:55:31;21.25;;;16.48;;
63693;SDS011;49839;51.798;10.954;2023-08-20T03:57:58;22.55;;;17.73;;
63693;SDS011;49839;51.798;10.954;2023-08-20T04:00:26;22.35;;;17.75;;
63693;SDS011;49839;51.798;10.954;2023-08-20T04:02:53;22.27;;;17.35;;
63693;SDS011;49839;51.798;10.954;2023-08-20T04:05:22;22.40;;;17.55;;
63693;SDS011;49839;51.798;10.954;2023-08-20T04:07:50;25.10;;;17.45;;
63693;SDS011;49839;51.798;10.954;2023-08-20T04:10:17;23.88;;;17.63;;
63693;SDS011;49839;51.798;10.954;2023-08-20T04:12:44;21.95;;;17.38;;
63693;SDS011;49839;51.798;10.954;2023-08-20T04:15:12;22.98;;;17.30;;
63693;SDS011;49839;51.798;10.954;2023-08-20T04:17:39;20.27;;;16.58;;
63693;SDS011;49839;51.798;10.954;2023-08-20T04:20:07;24.02;;;17.48;;
63693;SDS011;49839;51.798;10.954;2023-08-20T04:22:37;20.55;;;16.58;;
63693;SDS011;49839;51.798;10.954;2023-08-20T04:25:05;24.83;;;17.58;;
63693;SDS011;49839;51.798;10.954;2023-08-20T04:27:32;22.40;;;16.80;;
63693;SDS011;49839;51.798;10.954;2023-08-20T04:30:00;20.52;;;16.92;;
63693;SDS011;49839;51.798;10.954;2023-08-20T04:32:28;21.88;;;16.77;;
63693;SDS011;49839;51.798;10.954;2023-08-20T04:34:55;25.75;;;17.67;;
63693;SDS011;49839;51.798;10.954;2023-08-20T04:37:23;22.80;;;17.38;;
63693;SDS011;49839;51.798;10.954;2023-08-20T04:39:52;21.02;;;17.38;;
63693;SDS011;49839;51.798;10.954;2023-08-20T04:42:19;22.00;;;18.25;;
63693;SDS011;49839;51.798;10.954;2023-08-20T04:44:46;25.65;;;17.27;;
63693;SDS011;49839;51.798;10.954;2023-08-20T04:47:14;22.83;;;17.33;;
63693;SDS011;49839;51.798;10.954;2023-08-20T04:49:41;21.27;;;18.05;;
63693;SDS011;49839;51.798;10.954;2023-08-20T04:52:09;22.13;;;17.63;;
63693;SDS011;49839;51.798;10.954;2023-08-20T04:54:37;21.30;;;16.60;;
63693;SDS011;49839;51.798;10.954;2023-08-20T04:57:05;22.05;;;17.45;;
63693;SDS011;49839;51.798;10.954;2023-08-20T04:59:33;22.52;;;18.00;;
63693;SDS011;49839;51.798;10.954;2023-08-20T05:02:01;22.70;;;16.80;;
63693;SDS011;49839;51.798;10.954;2023-08-20T05:04:28;21.30;;;17.30;;
63693;SDS011;49839;51.798;10.954;2023-08-20T05:06:55;21.92;;;17.02;;
63693;SDS011;49839;51.798;10.954;2023-08-20T05:09:23;23.10;;;17.60;;
63693;SDS011;49839;51.798;10.954;2023-08-20T05:11:50;22.42;;;17.17;;
63693;SDS011;49839;51.798;10.954;2023-08-20T05:14:19;20.65;;;16.63;;
63693;SDS011;49839;51.798;10.954;2023-08-20T05:16:47;19.42;;;16.40;;
63693;SDS011;49839;51.798;10.954;2023-08-20T05:19:14;19.55;;;16.23;;
63693;SDS011;49839;51.798;10.954;2023-08-20T05:21:42;21.73;;;16.08;;
63693;SDS011;49839;51.798;10.954;2023-08-20T05:24:09;22.52;;;16.98;;
63693;SDS011;49839;51.798;10.954;2023-08-20T05:26:37;22.52;;;15.90;;
63693;SDS011;49839;51.798;10.954;2023-08-20T05:29:04;22.48;;;16.10;;
63693;SDS011;49839;51.798;10.954;2023-08-20T05:31:33;21.35;;;16.40;;
63693;SDS011;49839;51.798;10.954;2023-08-20T05:34:00;20.70;;;16.20;;
63693;SDS011;49839;51.798;10.954;2023-08-20T05:36:28;20.13;;;15.57;;
63693;SDS011;49839;51.798;10.954;2023-08-20T05:38:55;20.75;;;15.55;;
63693;SDS011;49839;51.798;10.954;2023-08-20T05:41:23;23.08;;;16.35;;
63693;SDS011;49839;51.798;10.954;2023-08-20T05:43:50;21.80;;;17.23;;
63693;SDS011;49839;51.798;10.954;2023-08-20T05:46:18;19.90;;;16.75;;
63693;SDS011;49839;51.798;10.954;2023-08-20T05:48:47;20.00;;;16.00;;
63693;SDS011;49839;51.798;10.954;2023-08-20T05:51:14;20.70;;;15.73;;
63693;SDS011;49839;51.798;10.954;2023-08-20T05:53:41;20.13;;;15.93;;
63693;SDS011;49839;51.798;10.954;2023-08-20T05:56:09;21.90;;;17.08;;
63693;SDS011;49839;51.798;10.954;2023-08-20T05:58:36;20.50;;;17.15;;
63693;SDS011;49839;51.798;10.954;2023-08-20T06:01:04;19.60;;;16.85;;
63693;SDS011;49839;51.798;10.954;2023-08-20T06:03:31;22.50;;;17.25;;
63693;SDS011;49839;51.798;10.954;2023-08-20T06:06:00;24.85;;;18.25;;
63693;SDS011;49839;51.798;10.954;2023-08-20T06:08:31;21.08;;;15.85;;
63693;SDS011;49839;51.798;10.954;2023-08-20T06:10:59;23.65;;;17.75;;
63693;SDS011;49839;51.798;10.954;2023-08-20T06:13:26;20.70;;;15.88;;
63693;SDS011;49839;51.798;10.954;2023-08-20T06:15:54;19.92;;;16.00;;
63693;SDS011;49839;51.798;10.954;2023-08-20T06:18:21;20.30;;;15.60;;
63693;SDS011;49839;51.798;10.954;2023-08-20T06:20:49;22.33;;;16.63;;
63693;SDS011;49839;51.798;10.954;2023-08-20T06:23:18;19.50;;;15.20;;
63693;SDS011;49839;51.798;10.954;2023-08-20T06:26:05;19.13;;;14.90;;
63693;SDS011;49839;51.798;10.954;2023-08-20T06:28:32;17.20;;;14.68;;
63693;SDS011;49839;51.798;10.954;2023-08-20T06:31:00;20.40;;;14.15;;
63693;SDS011;49839;51.798;10.954;2023-08-20T06:33:27;17.73;;;14.82;;
63693;SDS011;49839;51.798;10.954;2023-08-20T06:35:55;16.65;;;12.50;;
63693;SDS011;49839;51.798;10.954;2023-08-20T06:38:24;18.00;;;12.52;;
63693;SDS011;49839;51.798;10.954;2023-08-20T06:40:51;12.95;;;9.13;;
63693;SDS011;49839;51.798;10.954;2023-08-20T06:43:19;13.27;;;9.60;;
63693;SDS011;49839;51.798;10.954;2023-08-20T06:45:46;12.95;;;9.70;;
63693;SDS011;49839;51.798;10.954;2023-08-20T06:48:14;14.07;;;9.40;;
63693;SDS011;49839;51.798;10.954;2023-08-20T06:50:42;14.87;;;10.53;;
63693;SDS011;49839;51.798;10.954;2023-08-20T06:53:10;16.05;;;11.40;;
63693;SDS011;49839;51.798;10.954;2023-08-20T06:55:39;14.90;;;10.68;;
63693;SDS011;49839;51.798;10.954;2023-08-20T06:58:06;14.88;;;10.57;;
63693;SDS011;49839;51.798;10.954;2023-08-20T07:00:34;11.75;;;9.20;;
63693;SDS011;49839;51.798;10.954;2023-08-20T07:03:01;13.75;;;9.45;;
63693;SDS011;49839;51.798;10.954;2023-08-20T07:05:29;14.60;;;9.20;;
63693;SDS011;49839;51.798;10.954;2023-08-20T07:07:57;12.43;;;8.90;;
63693;SDS011;49839;51.798;10.954;2023-08-20T07:10:24;14.88;;;8.88;;
63693;SDS011;49839;51.798;10.954;2023-08-20T07:12:53;13.93;;;8.68;;
63693;SDS011;49839;51.798;10.954;2023-08-20T07:15:21;13.27;;;8.13;;
63693;SDS011;49839;51.798;10.954;2023-08-20T07:17:48;12.00;;;7.40;;
63693;SDS011;49839;51.798;10.954;2023-08-20T07:20:16;11.35;;;7.45;;
63693;SDS011;49839;51.798;10.954;2023-08-20T07:22:43;7.97;;;5.80;;
63693;SDS011;49839;51.798;10.954;2023-08-20T07:25:11;9.40;;;6.68;;
63693;SDS011;49839;51.798;10.954;2023-08-20T07:27:38;9.88;;;6.40;;
63693;SDS011;49839;51.798;10.954;2023-08-20T07:30:08;8.23;;;5.10;;
63693;SDS011;49839;51.798;10.954;2023-08-20T07:32:35;8.02;;;4.68;;
63693;SDS011;49839;51.798;10.954;2023-08-20T07:35:03;8.07;;;4.45;;
63693;SDS011;49839;51.798;10.954;2023-08-20T07:37:37;7.88;;;4.60;;
63693;SDS011;49839;51.798;10.954;2023-08-20T07:40:05;8.32;;;4.68;;
63693;SDS011;49839;51.798;10.954;2023-08-20T07:42:32;7.00;;;4.13;;
63693;SDS011;49839;51.798;10.954;2023-08-20T07:45:00;7.35;;;4.70;;
63693;SDS011;49839;51.798;10.954;2023-08-20T07:47:29;8.93;;;4.80;;
63693;SDS011;49839;51.798;10.954;2023-08-20T07:52:24;12.90;;;4.88;;
63693;SDS011;49839;51.798;10.954;2023-08-20T07:54:51;9.88;;;4.55;;
63693;SDS011;49839;51.798;10.954;2023-08-20T07:57:19;6.63;;;4.05;;
63693;SDS011;49839;51.798;10.954;2023-08-20T07:59:47;7.20;;;4.10;;
63693;SDS011;49839;51.798;10.954;2023-08-20T08:02:14;8.48;;;4.80;;
63693;SDS011;49839;51.798;10.954;2023-08-20T08:07:25;7.15;;;4.05;;
63693;SDS011;49839;51.798;10.954;2023-08-20T08:09:53;6.43;;;3.60;;
63693;SDS011;49839;51.798;10.954;2023-08-20T08:12:20;10.50;;;3.85;;
63693;SDS011;49839;51.798;10.954;2023-08-20T08:14:48;5.82;;;3.78;;
63693;SDS011;49839;51.798;10.954;2023-08-20T08:17:15;6.43;;;3.60;;
63693;SDS011;49839;51.798;10.954;2023-08-20T08:19:42;6.65;;;3.53;;
63693;SDS011;49839;51.798;10.954;2023-08-20T08:22:10;5.45;;;3.28;;
63693;SDS011;49839;51.798;10.954;2023-08-20T08:24:39;6.32;;;4.18;;
63693;SDS011;49839;51.798;10.954;2023-08-20T08:27:08;10.25;;;4.70;;
63693;SDS011;49839;51.798;10.954;2023-08-20T08:29:36;7.30;;;4.05;;
63693;SDS011;49839;51.798;10.954;2023-08-20T08:32:03;8.38;;;3.63;;
63693;SDS011;49839;51.798;10.954;2023-08-20T08:34:31;6.05;;;4.13;;
63693;SDS011;49839;51.798;10.954;2023-08-20T08:36:58;8.23;;;4.28;;
63693;SDS011;49839;51.798;10.954;2023-08-20T08:39:26;6.32;;;3.92;;
63693;SDS011;49839;51.798;10.954;2023-08-20T08:41:56;8.85;;;4.82;;
63693;SDS011;49839;51.798;10.954;2023-08-20T08:44:27;7.85;;;4.70;;
63693;SDS011;49839;51.798;10.954;2023-08-20T08:46:55;8.00;;;4.60;;
63693;SDS011;49839;51.798;10.954;2023-08-20T08:49:22;6.17;;;4.37;;
63693;SDS011;49839;51.798;10.954;2023-08-20T08:51:50;8.73;;;4.10;;
63693;SDS011;49839;51.798;10.954;2023-08-20T08:54:17;6.28;;;3.80;;
63693;SDS011;49839;51.798;10.954;2023-08-20T08:56:46;6.90;;;3.88;;
63693;SDS011;49839;51.798;10.954;2023-08-20T08:59:15;8.57;;;4.57;;
63693;SDS011;49839;51.798;10.954;2023-08-20T09:01:42;8.88;;;4.15;;
63693;SDS011;49839;51.798;10.954;2023-08-20T09:04:10;7.03;;;4.60;;
63693;SDS011;49839;51.798;10.954;2023-08-20T09:06:44;7.32;;;4.07;;
63693;SDS011;49839;51.798;10.954;2023-08-20T09:09:12;6.90;;;3.92;;
63693;SDS011;49839;51.798;10.954;2023-08-20T09:11:40;7.27;;;4.43;;
63693;SDS011;49839;51.798;10.954;2023-08-20T09:14:07;5.93;;;3.80;;
63693;SDS011;49839;51.798;10.954;2023-08-20T09:16:36;6.10;;;3.43;;
63693;SDS011;49839;51.798;10.954;2023-08-20T09:19:03;7.45;;;3.97;;
63693;SDS011;49839;51.798;10.954;2023-08-20T09:21:31;6.68;;;3.47;;
63693;SDS011;49839;51.798;10.954;2023-08-20T09:24:00;6.50;;;4.20;;
63693;SDS011;49839;51.798;10.954;2023-08-20T09:26:28;6.43;;;3.30;;
63693;SDS011;49839;51.798;10.954;2023-08-20T09:28:56;5.40;;;3.47;;
63693;SDS011;49839;51.798;10.954;2023-08-20T09:31:37;6.30;;;3.67;;
63693;SDS011;49839;51.798;10.954;2023-08-20T09:34:11;6.28;;;3.83;;
63693;SDS011;49839;51.798;10.954;2023-08-20T09:36:39;5.55;;;3.60;;
63693;SDS011;49839;51.798;10.954;2023-08-20T09:39:06;4.97;;;3.38;;
63693;SDS011;49839;51.798;10.954;2023-08-20T09:41:34;6.50;;;3.90;;
63693;SDS011;49839;51.798;10.954;2023-08-20T09:44:04;6.22;;;3.60;;
63693;SDS011;49839;51.798;10.954;2023-08-20T09:46:33;6.70;;;3.92;;
63693;SDS011;49839;51.798;10.954;2023-08-20T09:49:01;6.90;;;3.60;;
63693;SDS011;49839;51.798;10.954;2023-08-20T09:51:31;7.70;;;4.05;;
63693;SDS011;49839;51.798;10.954;2023-08-20T09:54:02;5.20;;;3.80;;
63693;SDS011;49839;51.798;10.954;2023-08-20T09:56:30;5.85;;;3.47;;
63693;SDS011;49839;51.798;10.954;2023-08-20T09:58:58;6.68;;;3.45;;
63693;SDS011;49839;51.798;10.954;2023-08-20T10:01:26;5.45;;;3.38;;
63693;SDS011;49839;51.798;10.954;2023-08-20T10:03:54;6.47;;;3.60;;
63693;SDS011;49839;51.798;10.954;2023-08-20T10:06:22;5.77;;;3.10;;
63693;SDS011;49839;51.798;10.954;2023-08-20T10:08:51;5.30;;;3.42;;
63693;SDS011;49839;51.798;10.954;2023-08-20T10:11:20;5.10;;;3.03;;
63693;SDS011;49839;51.798;10.954;2023-08-20T10:13:47;4.90;;;3.15;;
63693;SDS011;49839;51.798;10.954;2023-08-20T10:18:46;6.53;;;3.70;;
63693;SDS011;49839;51.798;10.954;2023-08-20T10:21:13;6.97;;;3.43;;
63693;SDS011;49839;51.798;10.954;2023-08-20T10:23:41;5.53;;;3.25;;
63693;SDS011;49839;51.798;10.954;2023-08-20T10:26:10;9.30;;;3.70;;
63693;SDS011;49839;51.798;10.954;2023-08-20T10:28:39;4.93;;;3.17;;
63693;SDS011;49839;51.798;10.954;2023-08-20T10:31:08;6.07;;;3.50;;
63693;SDS011;49839;51.798;10.954;2023-08-20T10:33:48;7.00;;;3.40;;
63693;SDS011;49839;51.798;10.954;2023-08-20T10:36:17;5.82;;;3.63;;
63693;SDS011;49839;51.798;10.954;2023-08-20T10:38:49;5.85;;;3.83;;
63693;SDS011;49839;51.798;10.954;2023-08-20T10:43:49;7.07;;;3.70;;
63693;SDS011;49839;51.798;10.954;2023-08-20T10:46:18;5.53;;;3.20;;
63693;SDS011;49839;51.798;10.954;2023-08-20T10:48:47;5.68;;;3.92;;
63693;SDS011;49839;51.798;10.954;2023-08-20T10:51:16;6.07;;;3.58;;
63693;SDS011;49839;51.798;10.954;2023-08-20T10:53:48;9.65;;;4.53;;
63693;SDS011;49839;51.798;10.954;2023-08-20T10:56:37;5.60;;;4.00;;
63693;SDS011;49839;51.798;10.954;2023-08-20T10:59:06;8.07;;;4.05;;
63693;SDS011;49839;51.798;10.954;2023-08-20T11:01:34;7.38;;;4.25;;
63693;SDS011;49839;51.798;10.954;2023-08-20T11:04:02;5.57;;;3.90;;
63693;SDS011;49839;51.798;10.954;2023-08-20T11:06:32;7.93;;;4.10;;
63693;SDS011;49839;51.798;10.954;2023-08-20T11:09:00;6.33;;;4.00;;
63693;SDS011;49839;51.798;10.954;2023-08-20T11:11:28;6.95;;;3.90;;
63693;SDS011;49839;51.798;10.954;2023-08-20T11:13:56;5.55;;;4.10;;
63693;SDS011;49839;51.798;10.954;2023-08-20T11:16:27;7.22;;;3.95;;
63693;SDS011;49839;51.798;10.954;2023-08-20T11:18:55;7.57;;;3.95;;
63693;SDS011;49839;51.798;10.954;2023-08-20T11:21:24;6.60;;;4.20;;
63693;SDS011;49839;51.798;10.954;2023-08-20T11:23:51;5.85;;;4.18;;
63693;SDS011;49839;51.798;10.954;2023-08-20T11:26:21;6.72;;;4.20;;
63693;SDS011;49839;51.798;10.954;2023-08-20T11:28:48;7.35;;;4.10;;
63693;SDS011;49839;51.798;10.954;2023-08-20T11:31:16;5.93;;;4.13;;
63693;SDS011;49839;51.798;10.954;2023-08-20T11:33:45;9.00;;;4.30;;
63693;SDS011;49839;51.798;10.954;2023-08-20T11:36:14;7.07;;;4.28;;
63693;SDS011;49839;51.798;10.954;2023-08-20T11:38:42;5.95;;;3.80;;
63693;SDS011;49839;51.798;10.954;2023-08-20T11:41:09;7.70;;;4.13;;
63693;SDS011;49839;51.798;10.954;2023-08-20T11:43:37;6.80;;;4.20;;
63693;SDS011;49839;51.798;10.954;2023-08-20T11:46:04;6.25;;;4.15;;
63693;SDS011;49839;51.798;10.954;2023-08-20T11:48:32;7.10;;;4.45;;
63693;SDS011;49839;51.798;10.954;2023-08-20T11:51:05;7.80;;;4.78;;
63693;SDS011;49839;51.798;10.954;2023-08-20T11:53:33;6.05;;;4.40;;
63693;SDS011;49839;51.798;10.954;2023-08-20T11:56:00;6.47;;;4.40;;
63693;SDS011;49839;51.798;10.954;2023-08-20T11:58:28;6.88;;;4.38;;
63693;SDS011;49839;51.798;10.954;2023-08-20T12:00:57;6.75;;;4.57;;
63693;SDS011;49839;51.798;10.954;2023-08-20T12:03:28;6.88;;;4.55;;
63693;SDS011;49839;51.798;10.954;2023-08-20T12:05:56;7.13;;;4.30;;
63693;SDS011;49839;51.798;10.954;2023-08-20T12:08:25;7.55;;;4.30;;
63693;SDS011;49839;51.798;10.954;2023-08-20T12:10:54;7.95;;;4.43;;
63693;SDS011;49839;51.798;10.954;2023-08-20T12:13:24;6.45;;;4.25;;
63693;SDS011;49839;51.798;10.954;2023-08-20T12:15:52;6.82;;;4.25;;
63693;SDS011;49839;51.798;10.954;2023-08-20T12:18:19;9.50;;;5.00;;
63693;SDS011;49839;51.798;10.954;2023-08-20T12:20:47;6.57;;;4.63;;
63693;SDS011;49839;51.798;10.954;2023-08-20T12:23:14;7.32;;;4.05;;
63693;SDS011;49839;51.798;10.954;2023-08-20T12:28:12;8.23;;;4.53;;
63693;SDS011;49839;51.798;10.954;2023-08-20T12:33:07;7.20;;;4.50;;
63693;SDS011;49839;51.798;10.954;2023-08-20T12:35:34;8.68;;;4.70;;
63693;SDS011;49839;51.798;10.954;2023-08-20T12:38:04;7.22;;;4.60;;
63693;SDS011;49839;51.798;10.954;2023-08-20T12:43:02;8.23;;;4.57;;
63693;SDS011;49839;51.798;10.954;2023-08-20T12:45:30;7.43;;;4.63;;
63693;SDS011;49839;51.798;10.954;2023-08-20T12:47:58;6.55;;;4.57;;
63693;SDS011;49839;51.798;10.954;2023-08-20T12:50:29;7.60;;;4.50;;
63693;SDS011;49839;51.798;10.954;2023-08-20T12:52:58;8.70;;;4.57;;
63693;SDS011;49839;51.798;10.954;2023-08-20T12:55:26;5.55;;;3.88;;
63693;SDS011;49839;51.798;10.954;2023-08-20T12:57:54;8.05;;;4.25;;
63693;SDS011;49839;51.798;10.954;2023-08-20T13:00:22;6.38;;;4.43;;
63693;SDS011;49839;51.798;10.954;2023-08-20T13:02:53;6.45;;;4.35;;
63693;SDS011;49839;51.798;10.954;2023-08-20T13:05:22;10.70;;;4.13;;
63693;SDS011;49839;51.798;10.954;2023-08-20T13:07:50;5.40;;;3.95;;
63693;SDS011;49839;51.798;10.954;2023-08-20T13:10:20;12.32;;;4.63;;
63693;SDS011;49839;51.798;10.954;2023-08-20T13:12:48;8.27;;;4.50;;
63693;SDS011;49839;51.798;10.954;2023-08-20T13:15:16;8.55;;;5.25;;
63693;SDS011;49839;51.798;10.954;2023-08-20T13:17:45;7.60;;;4.23;;
63693;SDS011;49839;51.798;10.954;2023-08-20T13:22:41;5.68;;;3.92;;
63693;SDS011;49839;51.798;10.954;2023-08-20T13:25:10;8.23;;;4.40;;
63693;SDS011;49839;51.798;10.954;2023-08-20T13:27:37;9.35;;;4.68;;
63693;SDS011;49839;51.798;10.954;2023-08-20T13:30:05;7.10;;;3.95;;
63693;SDS011;49839;51.798;10.954;2023-08-20T13:32:34;7.78;;;3.97;;
63693;SDS011;49839;51.798;10.954;2023-08-20T13:35:02;7.95;;;4.55;;
63693;SDS011;49839;51.798;10.954;2023-08-20T13:37:30;6.90;;;4.43;;
63693;SDS011;49839;51.798;10.954;2023-08-20T13:39:59;7.10;;;4.50;;
63693;SDS011;49839;51.798;10.954;2023-08-20T13:42:27;7.65;;;4.70;;
63693;SDS011;49839;51.798;10.954;2023-08-20T13:44:54;10.65;;;4.38;;
63693;SDS011;49839;51.798;10.954;2023-08-20T13:47:21;8.80;;;4.88;;
63693;SDS011;49839;51.798;10.954;2023-08-20T13:49:49;6.90;;;4.43;;
63693;SDS011;49839;51.798;10.954;2023-08-20T13:52:16;6.20;;;4.30;;
63693;SDS011;49839;51.798;10.954;2023-08-20T13:54:45;6.95;;;4.75;;
63693;SDS011;49839;51.798;10.954;2023-08-20T13:57:14;7.63;;;4.43;;
63693;SDS011;49839;51.798;10.954;2023-08-20T14:02:09;8.93;;;4.32;;
63693;SDS011;49839;51.798;10.954;2023-08-20T14:04:36;11.43;;;4.70;;
63693;SDS011;49839;51.798;10.954;2023-08-20T14:07:04;6.57;;;4.38;;
63693;SDS011;49839;51.798;10.954;2023-08-20T14:09:31;7.65;;;3.80;;
63693;SDS011;49839;51.798;10.954;2023-08-20T14:12:00;6.90;;;4.32;;
63693;SDS011;49839;51.798;10.954;2023-08-20T14:14:29;6.93;;;3.83;;
63693;SDS011;49839;51.798;10.954;2023-08-20T14:16:58;7.57;;;4.22;;
63693;SDS011;49839;51.798;10.954;2023-08-20T14:19:25;8.45;;;4.20;;
63693;SDS011;49839;51.798;10.954;2023-08-20T14:21:52;6.32;;;4.18;;
63693;SDS011;49839;51.798;10.954;2023-08-20T14:24:23;7.72;;;4.07;;
63693;SDS011;49839;51.798;10.954;2023-08-20T14:26:50;6.35;;;3.97;;
63693;SDS011;49839;51.798;10.954;2023-08-20T14:29:18;7.55;;;4.50;;
63693;SDS011;49839;51.798;10.954;2023-08-20T14:31:47;7.82;;;4.20;;
63693;SDS011;49839;51.798;10.954;2023-08-20T14:34:18;7.53;;;4.20;;
63693;SDS011;49839;51.798;10.954;2023-08-20T14:36:45;7.78;;;4.00;;
63693;SDS011;49839;51.798;10.954;2023-08-20T14:39:13;8.40;;;4.07;;
63693;SDS011;49839;51.798;10.954;2023-08-20T14:41:40;7.10;;;4.13;;
63693;SDS011;49839;51.798;10.954;2023-08-20T14:44:10;7.07;;;4.22;;
63693;SDS011;49839;51.798;10.954;2023-08-20T14:46:39;5.70;;;4.00;;
63693;SDS011;49839;51.798;10.954;2023-08-20T14:49:08;6.63;;;4.05;;
63693;SDS011;49839;51.798;10.954;2023-08-20T14:51:35;9.68;;;4.50;;
63693;SDS011;49839;51.798;10.954;2023-08-20T14:54:03;10.25;;;4.25;;
63693;SDS011;49839;51.798;10.954;2023-08-20T14:56:30;7.78;;;4.07;;
63693;SDS011;49839;51.798;10.954;2023-08-20T14:58:58;8.70;;;3.80;;
63693;SDS011;49839;51.798;10.954;2023-08-20T15:01:25;5.72;;;3.20;;